Time;durP1;ratioP1;P1;durP2;ratioP2;P2;SDS_P1;SDS_P2;PMS_P1;PMS_P2;Temp;Humidity;BMP_temperature;BMP_pressure;BME280_temperature;BME280_humidity;BME280_pressure;Samples;Min_cycle;Max_cycle;Signal;HPM_P1;HPM_P2
2022/09/08 00:01:39;;;;;;;2.65;1.60;;;12.70;99.20;;;;;;4988588;28;20087;-77
2022/09/08 00:04:05;;;;;;;1.70;1.60;;;12.70;98.80;;;;;;4988796;28;20528;-77
2022/09/08 00:06:32;;;;;;;0.60;0.60;;;12.70;98.50;;;;;;4989872;28;20367;-77
2022/09/08 00:08:59;;;;;;;1.83;1.70;;;12.80;98.70;;;;;;4987616;28;20469;-77
2022/09/08 00:11:28;;;;;;;;;;;12.70;98.60;;;;;;4989153;28;20042;-77
2022/09/08 00:13:59;;;;;;;1.05;1.00;;;12.70;98.60;;;;;;4995173;28;19948;-77
2022/09/08 00:16:25;;;;;;;3.95;1.85;;;12.70;98.70;;;;;;5006248;28;20240;-76
2022/09/08 00:18:51;;;;;;;0.50;0.50;;;12.60;98.70;;;;;;5007837;28;20034;-77
2022/09/08 00:21:22;;;;;;;0.90;0.90;;;12.60;99.40;;;;;;5006044;28;20110;-77
2022/09/08 00:23:49;;;;;;;0.50;0.50;;;12.70;99.60;;;;;;5006306;28;20087;-77
2022/09/08 00:26:14;;;;;;;0.60;0.60;;;12.60;99.50;;;;;;5006325;28;20042;-77
2022/09/08 00:28:40;;;;;;;1.03;1.03;;;12.70;99.20;;;;;;5004188;28;20209;-77
2022/09/08 00:31:06;;;;;;;0.40;0.40;;;13.20;98.80;;;;;;4988119;28;20575;-76
2022/09/08 00:33:32;;;;;;;1.70;1.60;;;12.70;98.70;;;;;;4986047;28;20523;-76
2022/09/08 00:35:58;;;;;;;2.60;1.17;;;12.70;98.60;;;;;;4988789;28;20113;-75
2022/09/08 00:38:24;;;;;;;0.90;0.90;;;12.80;98.70;;;;;;4990206;28;20275;-76
2022/09/08 00:40:52;;;;;;;1.17;0.82;;;12.60;98.50;;;;;;4988046;28;20393;-77
2022/09/08 00:44:00;;;;;;;1.98;1.70;;;12.70;98.60;;;;;;4987991;28;20132;-77
2022/09/08 00:46:37;;;;;;;0.60;0.60;;;12.70;99.90;;;;;;5047635;28;20041;-77
2022/09/08 00:49:16;;;;;;;0.70;0.70;;;12.80;99.90;;;;;;4974649;28;20031;-77
2022/09/08 00:51:47;;;;;;;1.92;1.80;;;12.80;99.90;;;;;;4992968;28;20034;-77
2022/09/08 00:54:16;;;;;;;1.13;1.10;;;12.80;99.90;;;;;;5007006;28;20546;-77
2022/09/08 00:56:46;;;;;;;0.82;0.82;;;12.80;99.90;;;;;;5002062;28;20440;-77
2022/09/08 00:59:15;;;;;;;0.95;0.95;;;12.90;99.90;;;;;;4987487;28;20027;-76
2022/09/08 01:01:41;;;;;;;1.05;1.02;;;12.80;99.90;;;;;;4986014;28;20479;-77
2022/09/08 01:04:08;;;;;;;1.75;1.65;;;13.40;99.90;;;;;;4986026;28;20073;-77
2022/09/08 01:12:53;;;;;;;2.80;1.60;;;12.80;99.90;;;;;;4987414;28;20041;-77
2022/09/08 01:15:22;;;;;;;1.88;1.77;;;12.80;99.90;;;;;;4998361;28;20051;-78
2022/09/08 01:17:50;;;;;;;1.90;1.80;;;12.80;99.80;;;;;;5005375;28;20425;-78
2022/09/08 01:20:19;;;;;;;4.00;2.05;;;12.80;99.60;;;;;;5007355;28;20018;-77
2022/09/08 01:23:04;;;;;;;4.55;1.60;;;12.80;99.90;;;;;;4989825;28;20142;-78
2022/09/08 01:25:48;;;;;;;1.65;1.40;;;12.80;99.70;;;;;;4988012;28;20374;-77
2022/09/08 01:28:28;;;;;;;1.20;1.10;;;12.80;99.70;;;;;;4986257;28;20423;-77
2022/09/08 01:30:54;;;;;;;0.50;0.50;;;12.80;99.90;;;;;;4999316;28;20065;-77
2022/09/08 01:33:22;;;;;;;1.47;1.17;;;12.80;99.90;;;;;;5006865;28;20053;-77
2022/09/08 01:35:48;;;;;;;1.63;1.38;;;12.80;99.90;;;;;;5006066;28;20030;-77
2022/09/08 01:38:13;;;;;;;1.07;0.97;;;12.80;99.90;;;;;;4987567;28;20114;-77
2022/09/08 01:40:39;;;;;;;1.60;1.50;;;12.80;99.90;;;;;;4987469;28;20362;-77
2022/09/08 01:43:09;;;;;;;0.57;0.57;;;12.70;99.90;;;;;;4985947;28;20417;-77
2022/09/08 01:45:40;;;;;;;0.85;0.82;;;12.70;99.90;;;;;;5006780;28;20037;-77
2022/09/08 01:48:06;;;;;;;0.90;0.50;;;12.80;99.90;;;;;;5010121;28;20122;-77
2022/09/08 01:50:32;;;;;;;0.88;0.88;;;12.80;99.90;;;;;;5008954;28;20030;-77
2022/09/08 01:52:58;;;;;;;1.10;1.07;;;12.80;99.90;;;;;;4994000;28;20050;-76
2022/09/08 01:55:24;;;;;;;0.93;0.93;;;12.80;99.90;;;;;;4990711;28;20038;-77
2022/09/08 01:57:49;;;;;;;0.93;0.93;;;12.80;99.90;;;;;;4990309;28;20102;-77
2022/09/08 02:00:15;;;;;;;6.77;0.90;;;12.80;99.90;;;;;;4993087;28;20026;-77
2022/09/08 02:02:40;;;;;;;0.90;0.90;;;12.80;99.90;;;;;;5010015;28;20034;-77
2022/09/08 02:05:07;;;;;;;4.77;1.67;;;12.70;99.90;;;;;;5008817;28;20038;-78
2022/09/08 02:07:34;;;;;;;0.40;0.40;;;12.60;99.90;;;;;;5008340;28;20029;-76
2022/09/08 02:10:00;;;;;;;0.52;0.52;;;12.60;99.90;;;;;;5009502;28;20070;-76
2022/09/08 02:12:25;;;;;;;0.40;0.40;;;12.60;99.90;;;;;;5010166;28;20029;-77
2022/09/08 02:14:51;;;;;;;1.07;1.03;;;12.60;99.90;;;;;;5009926;28;20113;-78
2022/09/08 02:17:17;;;;;;;0.50;0.50;;;12.60;99.90;;;;;;4991634;28;20022;-77
2022/09/08 02:19:43;;;;;;;3.40;2.17;;;12.60;99.90;;;;;;4988914;28;20027;-76
2022/09/08 02:22:09;;;;;;;1.40;1.30;;;12.60;99.90;;;;;;4990775;28;20033;-77
2022/09/08 02:24:34;;;;;;;3.20;1.13;;;13.30;99.90;;;;;;4990929;28;20039;-77
2022/09/08 02:27:00;;;;;;;0.70;0.40;;;12.50;99.90;;;;;;4988817;28;20460;-77
2022/09/08 02:29:26;;;;;;;1.10;1.07;;;12.50;99.90;;;;;;4989902;28;20393;-77
2022/09/08 02:31:52;;;;;;;0.53;0.53;;;12.40;99.90;;;;;;5002162;28;20034;-77
2022/09/08 02:34:17;;;;;;;1.30;1.00;;;12.40;99.90;;;;;;5009510;28;20034;-77
2022/09/08 02:36:43;;;;;;;0.43;0.43;;;12.40;99.90;;;;;;5009253;28;20049;-76
2022/09/08 02:39:16;;;;;;;0.63;0.63;;;12.40;99.90;;;;;;5008082;28;20038;-77
2022/09/08 02:41:41;;;;;;;2.58;1.45;;;12.30;99.90;;;;;;5009617;28;20083;-77
2022/09/08 02:44:09;;;;;;;3.60;1.50;;;12.30;99.90;;;;;;5008018;28;20066;-77
2022/09/08 02:46:34;;;;;;;0.70;0.70;;;12.40;99.90;;;;;;5008893;28;20041;-77
2022/09/08 02:49:00;;;;;;;0.50;0.50;;;12.20;99.90;;;;;;5009730;28;20454;-77
2022/09/08 02:51:26;;;;;;;0.83;0.83;;;12.20;99.90;;;;;;5010089;28;20052;-77
2022/09/08 02:53:54;;;;;;;1.73;1.43;;;12.20;99.90;;;;;;5005586;28;20041;-77
2022/09/08 02:56:20;;;;;;;0.40;0.40;;;12.10;99.90;;;;;;4981838;28;20031;-76
2022/09/08 02:58:46;;;;;;;1.13;1.03;;;12.10;99.90;;;;;;4969808;28;20393;-77
2022/09/08 03:01:11;;;;;;;12.53;0.93;;;12.10;99.90;;;;;;4977071;28;20075;-78
2022/09/08 03:03:37;;;;;;;0.93;0.93;;;12.20;99.90;;;;;;4973557;28;20035;-77
2022/09/08 03:06:04;;;;;;;0.50;0.50;;;12.20;99.90;;;;;;4969970;28;20371;-77
2022/09/08 03:08:30;;;;;;;2.90;1.75;;;12.30;99.90;;;;;;4981190;28;20034;-78
2022/09/08 03:10:56;;;;;;;0.50;0.50;;;12.40;99.90;;;;;;4987900;28;20043;-78
2022/09/08 03:13:22;;;;;;;0.57;0.57;;;12.40;99.90;;;;;;4989208;28;20113;-77
2022/09/08 03:15:49;;;;;;;9.20;0.90;;;12.50;99.90;;;;;;4987877;28;20219;-77
2022/09/08 03:18:15;;;;;;;0.60;0.60;;;12.50;99.90;;;;;;5007294;28;20114;-76
2022/09/08 03:20:42;;;;;;;0.50;0.50;;;12.50;99.90;;;;;;5007401;28;20034;-77
2022/09/08 03:23:13;;;;;;;0.55;0.50;;;12.50;99.90;;;;;;5005695;28;20029;-77
2022/09/08 03:25:39;;;;;;;0.50;0.50;;;12.50;99.90;;;;;;5007069;28;20113;-77
2022/09/08 03:28:06;;;;;;;0.87;0.73;;;12.50;99.90;;;;;;5009029;28;20113;-77
2022/09/08 03:30:32;;;;;;;0.43;0.43;;;12.50;99.90;;;;;;5008701;28;20034;-77
2022/09/08 03:32:58;;;;;;;0.75;0.75;;;12.50;99.90;;;;;;4994241;28;20363;-77
2022/09/08 03:35:24;;;;;;;0.63;0.63;;;12.50;99.90;;;;;;4988791;28;20011;-77
2022/09/08 03:37:52;;;;;;;0.40;0.40;;;13.30;99.90;;;;;;4989329;28;20287;-78
2022/09/08 03:40:18;;;;;;;0.30;0.30;;;12.40;99.90;;;;;;4987520;28;20473;-78
2022/09/08 03:42:44;;;;;;;0.30;0.30;;;12.40;99.90;;;;;;4987192;28;20124;-77
2022/09/08 03:45:14;;;;;;;0.40;0.40;;;12.40;99.90;;;;;;4988897;28;20350;-78
2022/09/08 03:47:39;;;;;;;0.40;0.40;;;12.40;99.90;;;;;;4998349;28;20042;-77
2022/09/08 03:50:06;;;;;;;0.40;0.40;;;12.40;99.80;;;;;;5008361;28;20091;-77
2022/09/08 03:52:31;;;;;;;0.52;0.52;;;12.30;99.80;;;;;;5008333;28;20075;-78
2022/09/08 03:54:57;;;;;;;1.63;1.53;;;12.30;99.70;;;;;;5004889;28;20042;-77
2022/09/08 03:57:28;;;;;;;1.17;1.15;;;12.30;99.70;;;;;;5006803;28;20033;-77
2022/09/08 03:59:56;;;;;;;0.60;0.60;;;12.20;99.70;;;;;;5008152;28;20038;-77
2022/09/08 04:02:23;;;;;;;0.77;0.77;;;12.30;99.60;;;;;;5002869;28;20025;-77
2022/09/08 04:04:50;;;;;;;0.30;0.30;;;12.30;99.50;;;;;;4988245;28;20406;-76
2022/09/08 04:07:18;;;;;;;0.57;0.57;;;12.40;99.50;;;;;;4988374;28;20037;-77
2022/09/08 04:09:44;;;;;;;0.52;0.52;;;12.30;99.00;;;;;;4989254;28;20406;-77
2022/09/08 04:12:10;;;;;;;1.00;0.80;;;12.30;98.40;;;;;;4989047;28;20026;-77
2022/09/08 04:14:36;;;;;;;0.50;0.50;;;12.40;98.00;;;;;;4988326;28;20298;-77
2022/09/08 04:17:02;;;;;;;0.70;0.70;;;12.50;97.80;;;;;;4989284;28;20113;-77
2022/09/08 04:19:28;;;;;;;0.77;0.77;;;12.50;97.90;;;;;;5006507;28;20030;-77
2022/09/08 04:21:54;;;;;;;0.43;0.43;;;12.50;98.80;;;;;;5008387;28;20029;-77
2022/09/08 04:24:19;;;;;;;0.50;0.50;;;12.60;99.60;;;;;;5005175;28;20030;-77
2022/09/08 04:26:49;;;;;;;0.40;0.40;;;12.70;99.50;;;;;;5006244;28;20098;-77
2022/09/08 04:29:14;;;;;;;0.50;0.50;;;12.70;98.90;;;;;;5007790;28;20034;-78
2022/09/08 04:31:40;;;;;;;0.40;0.40;;;12.80;98.90;;;;;;5006343;28;20041;-77
2022/09/08 04:34:06;;;;;;;1.20;1.20;;;12.90;98.50;;;;;;4992059;28;20042;-77
2022/09/08 04:36:32;;;;;;;0.47;0.47;;;13.00;98.00;;;;;;4988385;28;20420;-77
2022/09/08 04:38:59;;;;;;;0.50;0.50;;;13.10;97.70;;;;;;4988971;28;20030;-77
2022/09/08 04:41:27;;;;;;;0.65;0.65;;;13.30;96.90;;;;;;4986604;28;20073;-77
2022/09/08 04:43:54;;;;;;;0.60;0.60;;;13.40;97.20;;;;;;4987997;28;20521;-77
2022/09/08 04:46:20;;;;;;;0.40;0.40;;;13.50;96.90;;;;;;4986440;28;20031;-77
2022/09/08 04:48:46;;;;;;;0.40;0.40;;;13.60;96.90;;;;;;4997006;28;20421;-77
2022/09/08 04:51:16;;;;;;;0.40;0.40;;;13.70;96.90;;;;;;5006546;28;20410;-77
2022/09/08 04:53:42;;;;;;;0.32;0.32;;;13.80;96.70;;;;;;5007602;28;20482;-76
2022/09/08 04:56:09;;;;;;;3.77;0.90;;;13.90;96.30;;;;;;4989208;28;20038;-76
2022/09/08 04:58:37;;;;;;;0.40;0.40;;;14.00;96.30;;;;;;4988236;28;20034;-76
2022/09/08 05:01:08;;;;;;;0.68;0.68;;;14.20;96.30;;;;;;4986419;28;20023;-77
2022/09/08 05:03:34;;;;;;;0.30;0.30;;;14.30;96.10;;;;;;4994740;28;20063;-77
2022/09/08 05:06:08;;;;;;;0.60;0.60;;;14.40;95.80;;;;;;5007231;28;20034;-76
2022/09/08 05:08:34;;;;;;;0.30;0.30;;;14.50;95.60;;;;;;5005719;28;20041;-77
2022/09/08 05:11:00;;;;;;;0.63;0.63;;;14.60;95.50;;;;;;5005320;28;20037;-77
2022/09/08 05:13:26;;;;;;;0.40;0.40;;;14.60;95.40;;;;;;5007732;28;20030;-77
2022/09/08 05:15:52;;;;;;;0.80;0.80;;;14.50;94.90;;;;;;5005426;28;20113;-76
2022/09/08 05:18:17;;;;;;;0.83;0.83;;;14.70;95.00;;;;;;5003992;28;20489;-77
2022/09/08 05:20:43;;;;;;;0.80;0.80;;;14.70;94.80;;;;;;4990048;28;20032;-78
2022/09/08 05:23:09;;;;;;;0.50;0.50;;;14.80;94.30;;;;;;4989560;28;20416;-77
2022/09/08 05:25:34;;;;;;;0.60;0.60;;;14.80;94.00;;;;;;4992065;28;20131;-78
2022/09/08 05:28:01;;;;;;;0.37;0.37;;;14.80;94.00;;;;;;4989606;28;20289;-77
2022/09/08 05:30:26;;;;;;;1.40;1.30;;;14.90;93.90;;;;;;4991333;28;20484;-77
2022/09/08 05:32:52;;;;;;;0.50;0.50;;;14.90;93.90;;;;;;4989541;28;20051;-77
2022/09/08 05:35:17;;;;;;;0.50;0.50;;;15.00;93.90;;;;;;4990977;28;20476;-77
2022/09/08 05:37:43;;;;;;;0.47;0.47;;;15.00;93.60;;;;;;4991739;28;20030;-78
2022/09/08 05:40:09;;;;;;;0.43;0.43;;;15.10;93.60;;;;;;4990467;28;20486;-78
2022/09/08 05:42:34;;;;;;;0.50;0.50;;;15.20;93.30;;;;;;4989454;28;20538;-78
2022/09/08 05:45:00;;;;;;;0.30;0.30;;;15.20;93.20;;;;;;4990314;28;20093;-76
2022/09/08 05:47:26;;;;;;;0.90;0.90;;;15.40;93.20;;;;;;4989448;28;20121;-76
2022/09/08 05:49:52;;;;;;;0.50;0.50;;;15.30;93.10;;;;;;5002469;28;20030;-77
2022/09/08 05:52:18;;;;;;;0.50;0.50;;;15.40;93.10;;;;;;5010570;28;20037;-77
2022/09/08 05:54:43;;;;;;;0.70;0.70;;;15.40;93.20;;;;;;5010014;28;20125;-76
2022/09/08 05:57:09;;;;;;;0.30;0.30;;;15.50;93.60;;;;;;5007002;28;20026;-77
2022/09/08 05:59:35;;;;;;;0.43;0.43;;;15.50;93.50;;;;;;5010142;28;20038;-77
2022/09/08 06:02:00;;;;;;;0.53;0.53;;;15.50;93.20;;;;;;5010259;28;20513;-77
2022/09/08 06:04:26;;;;;;;0.57;0.57;;;15.50;93.30;;;;;;5003669;28;20034;-77
2022/09/08 06:06:52;;;;;;;0.50;0.50;;;15.50;93.40;;;;;;4989152;28;20035;-77
2022/09/08 06:09:17;;;;;;;0.70;0.70;;;15.60;93.20;;;;;;4990551;28;20470;-77
2022/09/08 06:11:43;;;;;;;0.73;0.73;;;15.60;93.30;;;;;;4976400;28;20474;-78
2022/09/08 06:14:10;;;;;;;0.50;0.50;;;15.70;93.30;;;;;;4969400;28;20035;-76
2022/09/08 06:16:36;;;;;;;;;;;15.70;93.00;;;;;;4981593;28;20027;-77
2022/09/08 06:19:02;;;;;;;3.13;0.85;;;15.60;93.30;;;;;;4997733;28;20330;-77
2022/09/08 06:21:31;;;;;;;1.35;1.25;;;15.60;93.50;;;;;;4976915;28;20022;-78
2022/09/08 06:23:59;;;;;;;2.22;1.85;;;15.70;94.40;;;;;;4970499;28;20039;-77
2022/09/08 06:26:43;;;;;;;3.83;2.47;;;15.70;94.90;;;;;;4989518;28;20034;-77
2022/09/08 06:29:25;;;;;;;5.40;1.50;;;15.70;95.50;;;;;;4990407;28;20347;-78
2022/09/08 06:32:13;;;;;;;0.30;0.30;;;15.80;96.10;;;;;;4987402;28;20085;-76
2022/09/08 06:34:45;;;;;;;1.13;1.05;;;15.80;96.10;;;;;;4993852;28;20030;-77
2022/09/08 06:37:27;;;;;;;2.00;1.33;;;15.90;96.30;;;;;;5008175;28;20033;-78
2022/09/08 06:40:22;;;;;;;0.55;0.55;;;15.80;96.50;;;;;;5008096;28;20362;-78
2022/09/08 06:42:58;;;;;;;0.57;0.57;;;15.90;96.80;;;;;;4991015;28;20473;-77
2022/09/08 06:45:28;;;;;;;0.75;0.75;;;15.90;97.20;;;;;;4988297;28;20091;-78
2022/09/08 06:48:19;;;;;;;1.85;1.73;;;16.00;97.70;;;;;;4988464;28;20042;-77
2022/09/08 06:51:10;;;;;;;0.73;0.73;;;15.90;98.40;;;;;;5000740;28;20393;-77
2022/09/08 06:53:43;;;;;;;1.98;1.65;;;15.90;99.60;;;;;;5009272;28;20033;-78
2022/09/08 06:56:30;;;;;;;1.38;1.30;;;16.00;99.90;;;;;;5007443;28;20069;-77
2022/09/08 06:59:01;;;;;;;2.55;1.42;;;15.80;99.90;;;;;;5005882;28;20049;-78
2022/09/08 07:01:39;;;;;;;1.15;1.10;;;15.80;99.90;;;;;;5007612;28;20030;-78
2022/09/08 07:04:17;;;;;;;1.35;1.25;;;15.90;99.90;;;;;;5008915;28;20038;-76
2022/09/08 07:06:52;;;;;;;0.45;0.45;;;16.00;99.90;;;;;;4991814;28;20041;-77
2022/09/08 07:09:35;;;;;;;0.77;0.77;;;16.10;99.10;;;;;;4989715;28;20034;-77
2022/09/08 07:12:14;;;;;;;0.40;0.40;;;16.10;99.20;;;;;;4995503;28;20026;-69
2022/09/08 07:15:11;;;;;;;0.65;0.65;;;16.20;98.80;;;;;;4994253;28;20070;-69
2022/09/08 07:17:55;;;;;;;0.95;0.95;;;16.30;98.60;;;;;;4968549;28;20106;-70
2022/09/08 07:20:25;;;;;;;0.50;0.50;;;16.40;98.70;;;;;;4977655;28;20025;-69
2022/09/08 07:23:00;;;;;;;0.75;0.75;;;16.40;98.50;;;;;;5008542;28;20481;-71
2022/09/08 07:25:34;;;;;;;0.93;0.93;;;16.40;98.40;;;;;;5007459;28;20041;-70
2022/09/08 07:28:02;;;;;;;1.05;0.95;;;16.50;98.40;;;;;;4993810;28;20031;-69
2022/09/08 07:30:28;;;;;;;0.55;0.55;;;16.60;98.20;;;;;;4988824;28;20038;-69
2022/09/08 07:33:02;;;;;;;0.57;0.57;;;16.70;97.50;;;;;;4987639;28;20510;-70
2022/09/08 07:35:28;;;;;;;0.60;0.60;;;16.70;97.40;;;;;;4991176;28;20053;-70
2022/09/08 07:38:05;;;;;;;7.87;1.53;;;16.70;96.90;;;;;;5008354;28;20467;-68
2022/09/08 07:40:43;;;;;;;0.93;0.80;;;16.70;97.10;;;;;;5008650;28;20026;-70
2022/09/08 07:43:14;;;;;;;1.23;1.13;;;16.80;97.00;;;;;;4999271;28;20170;-70
2022/09/08 07:45:45;;;;;;;1.15;1.05;;;17.00;97.00;;;;;;4988456;28;20088;-68
2022/09/08 07:48:39;;;;;;;0.75;0.75;;;17.10;96.70;;;;;;4988688;28;20038;-70
2022/09/08 07:51:16;;;;;;;1.20;0.82;;;17.30;96.10;;;;;;4994491;28;20061;-68
2022/09/08 07:54:03;;;;;;;1.48;1.15;;;17.50;95.40;;;;;;5006532;28;20032;-69
2022/09/08 07:56:53;;;;;;;0.65;0.65;;;17.60;94.70;;;;;;5008405;28;20079;-70
2022/09/08 07:59:24;;;;;;;1.60;1.50;;;17.80;94.20;;;;;;5004583;28;20050;-70
2022/09/08 08:02:02;;;;;;;0.73;0.73;;;17.80;93.90;;;;;;5008244;28;20054;-70
2022/09/08 08:04:41;;;;;;;1.90;1.75;;;17.90;93.70;;;;;;5007980;28;20033;-70
2022/09/08 08:07:14;;;;;;;0.98;0.95;;;18.00;93.40;;;;;;4969187;28;20027;-70
2022/09/08 08:10:01;;;;;;;3.08;0.93;;;18.20;93.20;;;;;;4968942;28;20038;-70
2022/09/08 08:12:49;;;;;;;3.05;0.68;;;18.40;92.90;;;;;;4973205;28;20206;-70
2022/09/08 08:15:25;;;;;;;0.90;0.90;;;18.50;92.50;;;;;;4988249;28;20035;-70
2022/09/08 08:17:59;;;;;;;2.93;1.53;;;18.70;91.20;;;;;;4987993;28;20041;-69
2022/09/08 08:20:51;;;;;;;0.75;0.75;;;18.70;91.30;;;;;;4987891;28;20018;-68
2022/09/08 08:23:20;;;;;;;0.70;0.70;;;18.90;91.80;;;;;;4988197;28;20414;-70
2022/09/08 08:25:48;;;;;;;1.27;1.17;;;19.10;91.00;;;;;;4987983;28;20345;-70
2022/09/08 08:28:19;;;;;;;0.55;0.55;;;19.40;90.90;;;;;;4989000;28;20029;-70
2022/09/08 08:31:25;;;;;;;0.82;0.80;;;19.60;90.10;;;;;;4979433;28;20030;-70
2022/09/08 08:34:22;;;;;;;0.88;0.88;;;19.80;88.60;;;;;;5041902;28;20586;-71
2022/09/08 08:36:51;;;;;;;1.92;1.83;;;20.00;85.30;;;;;;4996525;28;20043;-70
2022/09/08 08:39:20;;;;;;;0.30;0.30;;;20.30;84.20;;;;;;4988019;28;20031;-68
2022/09/08 08:41:45;;;;;;;0.68;0.60;;;20.40;83.10;;;;;;4987921;28;20026;-67
2022/09/08 08:44:26;;;;;;;0.30;0.30;;;20.60;80.60;;;;;;4988475;28;20133;-69
2022/09/08 08:47:30;;;;;;;0.40;0.40;;;20.70;79.50;;;;;;4987475;28;20048;-70
2022/09/08 08:50:11;;;;;;;0.52;0.52;;;20.80;78.10;;;;;;5070300;28;20118;-69
2022/09/08 08:53:01;;;;;;;1.17;1.13;;;21.00;77.20;;;;;;5007462;28;20508;-68
2022/09/08 08:55:55;;;;;;;0.73;0.73;;;21.20;77.50;;;;;;5006111;28;20042;-69
2022/09/08 08:58:54;;;;;;;0.30;0.30;;;21.60;75.40;;;;;;5005211;28;20116;-69
2022/09/08 09:01:29;;;;;;;;;;;21.80;74.20;;;;;;5004457;28;20474;-69
2022/09/08 09:04:25;;;;;;;0.50;0.50;;;22.00;72.40;;;;;;5006655;28;19909;-68
2022/09/08 09:07:01;;;;;;;0.50;0.50;;;22.00;72.70;;;;;;5004426;28;20033;-69
2022/09/08 09:09:32;;;;;;;0.40;0.40;;;22.10;71.40;;;;;;4987185;28;20542;-70
2022/09/08 09:12:33;;;;;;;0.30;0.30;;;22.10;70.30;;;;;;4987340;28;20052;-70
2022/09/08 09:15:26;;;;;;;8.57;2.05;;;22.20;70.60;;;;;;5000904;28;20074;-70
2022/09/08 09:17:57;;;;;;;0.98;0.98;;;22.20;70.70;;;;;;4987312;28;20026;-70
2022/09/08 09:20:37;;;;;;;0.60;0.60;;;22.10;71.70;;;;;;4986003;28;20023;-70
2022/09/08 09:23:12;;;;;;;1.58;0.95;;;22.10;71.50;;;;;;4996254;28;20470;-68
2022/09/08 09:25:51;;;;;;;0.63;0.63;;;22.00;71.30;;;;;;5004903;28;20355;-70
2022/09/08 09:28:26;;;;;;;0.80;0.80;;;21.80;71.30;;;;;;5006717;28;20026;-69
2022/09/08 09:30:54;;;;;;;0.80;0.80;;;21.70;69.60;;;;;;4988729;28;20023;-70
2022/09/08 09:33:26;;;;;;;0.60;0.60;;;21.70;68.80;;;;;;4986705;28;20072;-70
2022/09/08 09:36:04;;;;;;;0.57;0.57;;;21.60;68.90;;;;;;4987072;28;20153;-69
2022/09/08 09:38:39;;;;;;;0.30;0.30;;;21.50;68.90;;;;;;4997979;28;20617;-69
2022/09/08 09:41:11;;;;;;;0.30;0.30;;;21.50;67.80;;;;;;5006569;28;20026;-69
2022/09/08 09:43:45;;;;;;;0.40;0.40;;;21.50;68.50;;;;;;5005651;28;20058;-70
2022/09/08 09:46:22;;;;;;;0.30;0.30;;;21.40;67.40;;;;;;4967826;28;20117;-70
2022/09/08 09:49:15;;;;;;;0.50;0.50;;;21.30;66.90;;;;;;4966105;28;20050;-68
2022/09/08 09:52:08;;;;;;;0.40;0.40;;;21.20;66.70;;;;;;4967618;28;20276;-68
2022/09/08 09:54:38;;;;;;;0.40;0.40;;;21.10;67.00;;;;;;5003762;28;20031;-69
2022/09/08 09:57:28;;;;;;;5.93;2.15;;;21.10;67.00;;;;;;5004881;28;20034;-69
2022/09/08 10:00:14;;;;;;;0.32;0.32;;;21.20;66.90;;;;;;5002962;28;20038;-70
2022/09/08 10:02:58;;;;;;;0.30;0.30;;;21.30;66.00;;;;;;5004228;28;20034;-69
2022/09/08 10:05:42;;;;;;;1.52;1.42;;;21.40;66.20;;;;;;5006070;28;20381;-69
2022/09/08 10:08:37;;;;;;;0.77;0.77;;;21.50;65.20;;;;;;5004883;28;20034;-68
2022/09/08 10:11:20;;;;;;;0.85;0.82;;;21.50;65.10;;;;;;4990230;28;20026;-68
2022/09/08 10:14:16;;;;;;;1.70;1.60;;;21.70;65.50;;;;;;4990068;28;20030;-68
2022/09/08 10:17:10;;;;;;;1.30;1.20;;;22.00;66.40;;;;;;4990194;28;20034;-66
2022/09/08 10:20:04;;;;;;;1.92;1.80;;;22.20;65.40;;;;;;4990247;28;20347;-65
2022/09/08 10:22:58;;;;;;;1.60;1.50;;;22.50;65.30;;;;;;4990293;28;20109;-65
2022/09/08 10:25:54;;;;;;;2.90;2.65;;;22.70;64.60;;;;;;4970253;28;20125;-67
2022/09/08 10:28:58;;;;;;;4.85;2.15;;;22.80;64.60;;;;;;4970391;28;20390;-65
2022/09/08 10:31:45;;;;;;;1.58;1.45;;;23.10;64.40;;;;;;4987814;28;20041;-66
2022/09/08 10:34:49;;;;;;;2.17;1.75;;;23.50;63.30;;;;;;4970230;28;20431;-66
2022/09/08 10:37:33;;;;;;;1.00;0.98;;;23.80;62.20;;;;;;4970726;28;20092;-67
2022/09/08 10:40:19;;;;;;;0.88;0.88;;;23.90;61.20;;;;;;5000945;28;20026;-66
2022/09/08 10:42:53;;;;;;;1.58;1.48;;;24.00;61.10;;;;;;5008824;28;20064;-67
2022/09/08 10:45:37;;;;;;;1.67;1.58;;;24.10;61.10;;;;;;5007300;28;20022;-67
2022/09/08 10:48:50;;;;;;;0.63;0.63;;;24.20;60.30;;;;;;5009277;28;20494;-65
2022/09/08 10:51:38;;;;;;;0.57;0.57;;;24.30;60.00;;;;;;4994654;28;20044;-67
2022/09/08 10:54:22;;;;;;;;;;;24.40;58.90;;;;;;4990544;28;20394;-67
2022/09/08 10:56:48;;;;;;;0.45;0.45;;;24.40;58.90;;;;;;4989367;28;19909;-67
2022/09/08 10:59:34;;;;;;;0.57;0.57;;;24.60;59.50;;;;;;4989534;28;20341;-66
2022/09/08 11:02:13;;;;;;;2.03;1.15;;;24.70;58.40;;;;;;5006935;28;20054;-66
2022/09/08 11:04:50;;;;;;;0.30;0.30;;;24.90;58.10;;;;;;4994240;28;20535;-66
2022/09/08 11:07:24;;;;;;;;;;;25.00;58.00;;;;;;5009095;28;20042;-68
2022/09/08 11:10:06;;;;;;;0.45;0.45;;;25.10;57.00;;;;;;5008827;28;19910;-65
2022/09/08 11:13:18;;;;;;;2.75;0.88;;;25.00;57.20;;;;;;5009016;28;20061;-66
2022/09/08 11:15:52;;;;;;;0.40;0.40;;;24.90;57.40;;;;;;5016455;28;20441;-66
2022/09/08 11:18:46;;;;;;;0.50;0.50;;;24.70;57.20;;;;;;5003762;28;20038;-66
2022/09/08 11:21:27;;;;;;;0.40;0.40;;;24.60;57.50;;;;;;5008399;28;20032;-65
2022/09/08 11:24:36;;;;;;;0.30;0.30;;;24.70;57.00;;;;;;5006471;28;20554;-66
2022/09/08 11:27:20;;;;;;;0.40;0.40;;;24.80;56.80;;;;;;5006938;28;20022;-66
2022/09/08 11:30:10;;;;;;;0.73;0.65;;;24.70;56.80;;;;;;5007041;28;20121;-66
2022/09/08 11:32:43;;;;;;;0.40;0.40;;;24.60;56.60;;;;;;5008403;28;20460;-65
2022/09/08 11:35:27;;;;;;;0.30;0.30;;;24.60;56.60;;;;;;4993533;28;20046;-66
2022/09/08 11:38:04;;;;;;;1.42;0.85;;;24.50;56.00;;;;;;4988628;28;20034;-65
2022/09/08 11:40:48;;;;;;;;;;;24.40;56.70;;;;;;4988714;28;20028;-67
2022/09/08 11:43:44;;;;;;;0.80;0.80;;;24.20;56.90;;;;;;4988200;28;19926;-66
2022/09/08 11:46:28;;;;;;;0.63;0.63;;;24.00;56.50;;;;;;4989052;28;21382;-64
2022/09/08 11:48:59;;;;;;;0.40;0.40;;;23.70;56.80;;;;;;4988312;28;20034;-65
2022/09/08 11:51:49;;;;;;;1.85;1.75;;;23.50;56.70;;;;;;4988828;28;20030;-65
2022/09/08 11:54:33;;;;;;;0.50;0.50;;;23.40;57.50;;;;;;5002043;28;20440;-66
2022/09/08 11:57:05;;;;;;;0.52;0.52;;;23.30;57.80;;;;;;5008362;28;20082;-65
2022/09/08 11:59:41;;;;;;;5.00;0.98;;;23.00;58.50;;;;;;5004863;28;20022;-66
2022/09/08 12:02:44;;;;;;;0.60;0.60;;;22.90;58.00;;;;;;4999399;28;20034;-65
2022/09/08 12:05:13;;;;;;;0.80;0.80;;;22.70;58.50;;;;;;4988163;28;20058;-66
2022/09/08 12:08:11;;;;;;;0.93;0.93;;;22.50;59.20;;;;;;4988330;28;20034;-66
2022/09/08 12:11:01;;;;;;;0.80;0.80;;;22.30;59.90;;;;;;4968501;28;20039;-66
2022/09/08 12:13:51;;;;;;;0.93;0.93;;;22.10;60.00;;;;;;4968055;28;20475;-65
2022/09/08 12:16:28;;;;;;;1.05;1.02;;;22.00;60.10;;;;;;5001654;28;20106;-65
2022/09/08 12:18:53;;;;;;;;;;;21.80;61.20;;;;;;5004518;28;20121;-66
2022/09/08 12:21:42;;;;;;;2.90;1.48;;;21.70;61.50;;;;;;5008049;28;20001;-67
2022/09/08 12:24:43;;;;;;;0.60;0.60;;;21.60;61.80;;;;;;5010038;28;20058;-66
2022/09/08 12:27:26;;;;;;;0.57;0.57;;;21.50;61.80;;;;;;4988244;28;20533;-65
2022/09/08 12:30:02;;;;;;;1.80;1.65;;;21.40;62.30;;;;;;4987871;28;20537;-66
2022/09/08 12:33:04;;;;;;;12.95;1.00;;;21.30;62.50;;;;;;4988076;28;20053;-66
2022/09/08 12:35:51;;;;;;;2.22;1.70;;;21.30;62.40;;;;;;4987718;28;20065;-66
2022/09/08 12:39:05;;;;;;;0.55;0.55;;;21.20;63.10;;;;;;4988570;28;20069;-65
2022/09/08 12:42:08;;;;;;;0.50;0.50;;;21.20;63.90;;;;;;5024263;28;20393;-67
2022/09/08 12:44:53;;;;;;;1.02;1.00;;;21.10;65.00;;;;;;5007033;28;20515;-65
2022/09/08 12:47:43;;;;;;;2.35;2.15;;;21.10;64.60;;;;;;5004209;28;20030;-65
2022/09/08 12:50:41;;;;;;;1.00;0.98;;;21.00;64.90;;;;;;5007447;28;20061;-67
2022/09/08 12:53:16;;;;;;;3.60;1.80;;;20.90;65.10;;;;;;5007089;28;20034;-65
2022/09/08 12:55:44;;;;;;;1.05;1.02;;;20.80;65.10;;;;;;5006321;28;20044;-65
2022/09/08 12:58:32;;;;;;;1.55;1.27;;;20.80;64.90;;;;;;5005633;28;20030;-67
2022/09/08 13:01:25;;;;;;;0.75;0.75;;;20.80;64.60;;;;;;5005534;28;20481;-66
2022/09/08 13:03:57;;;;;;;2.15;1.15;;;20.80;64.50;;;;;;5010543;28;20041;-65
2022/09/08 13:06:40;;;;;;;12.82;1.42;;;20.80;64.30;;;;;;5007094;28;20036;-65
2022/09/08 13:09:34;;;;;;;0.90;0.90;;;20.80;64.80;;;;;;5003479;28;20117;-66
2022/09/08 13:12:37;;;;;;;0.90;0.90;;;20.80;64.80;;;;;;4989746;28;20050;-66
2022/09/08 13:15:06;;;;;;;0.45;0.45;;;20.70;66.00;;;;;;4986736;28;20052;-67
2022/09/08 13:18:07;;;;;;;1.67;0.98;;;20.70;65.90;;;;;;4989355;28;20069;-66
2022/09/08 13:20:47;;;;;;;0.30;0.30;;;20.70;65.20;;;;;;5006408;28;20030;-66
2022/09/08 13:23:16;;;;;;;0.30;0.30;;;20.60;66.10;;;;;;5006290;28;20493;-65
2022/09/08 13:26:15;;;;;;;0.40;0.40;;;20.50;65.90;;;;;;5004593;28;20090;-66
2022/09/08 13:28:49;;;;;;;0.38;0.38;;;20.50;65.90;;;;;;5004357;28;20615;-66
2022/09/08 13:31:18;;;;;;;0.50;0.50;;;20.50;66.20;;;;;;4986278;28;20178;-65
2022/09/08 13:34:35;;;;;;;0.57;0.57;;;20.60;66.10;;;;;;4985132;28;20042;-67
2022/09/08 13:37:11;;;;;;;1.15;1.05;;;20.60;65.60;;;;;;4985395;28;20030;-65